KBIX/BIX METAR and TAF weather

Enter ICAO airport designator
Station Type Date Time Source
KBIX METAR 2021/09/25 02:56 UTC NOAA

KBIX 250256Z AUTO 06005KT 10SM CLR 19/13 A3005 RMK AO2 SLP179 T01920134 52010


Station Type Date Time Source
KBIX Decoded METAR 2021/09/25 02:56 UTC NOAA

Keesler Air Force Base / Biloxi, MS, United States (KBIX) 30-25N 088-55W
Sep 24, 2021 - 10:56 PM EDT / 2021.09.25 0256 UTC
Wind: from the ENE (060 degrees) at 6 MPH (5 KT):0
Visibility: 10 mile(s):0
Sky conditions: clear
Temperature: 66.6 F (19.2 C)
Dew Point: 56.1 F (13.4 C)
Relative Humidity: 69%
Pressure (altimeter): 30.05 in. Hg (1017 hPa)
Pressure tendency: 0.03 inches (1.0 hPa) higher than three hours ago
ob: KBIX 250256Z AUTO 06005KT 10SM CLR 19/13 A3005 RMK AO2 SLP179 T01920134 52010
cycle: 3

Station Type Date Time Source
KBIX TAF 2021/09/25 02:03 UTC NOAA

TAF TAF KBIX 250200Z 2502/2608 04006KT 9999 SKC QNH3000INS TX27/2520Z TN13/2511Z LAST NO
AMDS AFT 2504 NEXT 2510

Example: see airport list